Chestnut Grove, Alabama
Current Conditions -  °F | °C
As of 10:56 AM on Thursday 27 Nov 2014 (Local Time) from KSXS Reporting Station
Clear Clear  
Wind Chill: 53°   Ceiling: Unl
Heat Index: 53°   Visibility: 10mi
Dew Point: 31°   Wind: 9mph
Humidity: 42%   Direction: 350°N
Pressure: 30.36"   Gusts: 20mph
Location:  31.5584°N, 86.0569°W
Report Text: KSXS 271656Z AUTO 35008G17KT 320V030 10SM CLR 12/M01 A3036 RMK AO2 SLP283 T01191006
Loading
Personal Weather Stations






























Interactive Weather Map New forecast layout! Learn more

10-Day Weather Forecast

Advertisements
Track Severe Weather on mobile